»·PEaware :: MRR211 KBVU-2CA8

MRR211 :: KBVU-2CA8

FLIGHT INFORMATION

Flight Status: Arrived
Operator:
San Juan Airlines
More flights by this operator :: More flights under this callsign
Pilot: Robert L. (6895)
Aircraft: MCDONNELL-DOUGLAS DC-6/B LIFTMASTER
(DC6)
More flights by this aircraft type
Origin: KBVU Boulder City
United States
Destination: 2CA8 B & E Ranch
United States
More flights between these airports :: More routes between these airports
Route: DIRECT
File this flight plan on PilotEdge
Remarks:
Altitude:
(Current/Filed)
8,500ft
Speed:
(Current/Filed)
200kts
Departed: 14-May-17 10:42 AM
Arrived: 14-May-17 11:25 AM
Distance/Time
Traveled:
125nm/0:43
Distance/Time
To Go:
Arrived

Flight Plot

Page will automatically refresh every two minutes.


Map Options




Map Legend


Flown Route
Filed Route
Departure Airport
Arrival Airport
Navaid (VOR, NDB)
Fix

Horizontal Profiles

Position Reports

Time Latitude Longitude Heading Altitude Ground
Speed
14-May-17 10:35 35.948540 -114.859795 95 2212ft 0kts
14-May-17 10:36 35.948540 -114.859795 95 2212ft 0kts
14-May-17 10:37 35.948540 -114.859795 94 2212ft 0kts
14-May-17 10:38 35.948540 -114.859795 95 2212ft 0kts
14-May-17 10:39 35.948538 -114.859767 97 2212ft 1kts
14-May-17 10:40 35.949126 -114.861127 343 2212ft 12kts
14-May-17 10:41 35.953372 -114.862465 345 2212ft 18kts
14-May-17 10:42 35.953772 -114.862596 344 2212ft 0kts
14-May-17 10:43 35.953323 -114.863311 163 2212ft 0kts
14-May-17 10:44 35.949234 -114.861973 164 2212ft 85kts
14-May-17 10:45 35.915885 -114.862525 206 2900ft 143kts
14-May-17 10:46 35.875770 -114.888146 205 3656ft 179kts
14-May-17 10:47 35.832994 -114.915314 205 4406ft 167kts
14-May-17 10:48 35.791913 -114.941466 205 4918ft 165kts
14-May-17 10:49 35.756814 -114.977787 225 5345ft 169kts
14-May-17 10:50 35.723965 -115.018750 226 5871ft 165kts
14-May-17 10:51 35.691804 -115.058872 226 6363ft 164kts
14-May-17 10:52 35.652861 -115.085268 193 6812ft 166kts
14-May-17 10:53 35.609870 -115.103710 227 7250ft 166kts
14-May-17 10:54 35.577574 -115.145329 227 7624ft 172kts
14-May-17 10:55 35.544296 -115.188301 227 8046ft 175kts
14-May-17 10:56 35.510852 -115.231473 227 8461ft 177kts
14-May-17 10:57 35.477333 -115.274726 227 8450ft 189kts
14-May-17 10:58 35.440094 -115.322741 228 8453ft 198kts
14-May-17 10:59 35.401364 -115.372598 227 8452ft 206kts
14-May-17 11:00 35.361138 -115.424290 227 8446ft 211kts
14-May-17 11:01 35.320362 -115.476638 226 8449ft 213kts
14-May-17 11:02 35.279314 -115.529184 226 8449ft 214kts
14-May-17 11:03 35.237933 -115.582088 226 8449ft 215kts
14-May-17 11:04 35.196553 -115.634911 226 8453ft 215kts
14-May-17 11:05 35.158091 -115.683932 225 8477ft 215kts
14-May-17 11:06 35.116697 -115.736609 225 8475ft 215kts
14-May-17 11:07 35.075324 -115.789162 226 8476ft 215kts
14-May-17 11:08 35.033620 -115.842063 227 8479ft 218kts
14-May-17 11:09 34.991383 -115.895579 227 8479ft 220kts
14-May-17 11:10 34.948804 -115.949436 227 8478ft 221kts
14-May-17 11:11 34.906183 -116.003256 227 8478ft 222kts
14-May-17 11:12 34.873576 -116.054319 243 8438ft 202kts
14-May-17 11:13 34.847734 -116.115305 244 8060ft 202kts
14-May-17 11:14 34.821959 -116.176086 244 7695ft 202kts
14-May-17 11:15 34.795739 -116.237927 244 7197ft 208kts
14-May-17 11:16 34.768753 -116.302105 244 6521ft 219kts
14-May-17 11:17 34.740876 -116.369205 244 5837ft 224kts
14-May-17 11:18 34.713218 -116.435745 244 5438ft 217kts
14-May-17 11:19 34.686745 -116.499345 244 5158ft 206kts
14-May-17 11:20 34.654496 -116.547388 217 4901ft 170kts
14-May-17 11:21 34.617381 -116.578608 200 4282ft 159kts
14-May-17 11:22 34.578590 -116.580119 184 4341ft 130kts
14-May-17 11:23 34.541032 -116.584076 173 4329ft 149kts
14-May-17 11:24 34.500023 -116.585994 196 4064ft 144kts
14-May-17 11:25 34.463136 -116.598635 194 3633ft 139kts
14-May-17 11:26 34.427857 -116.609223 198 2863ft 111kts
14-May-17 11:27 34.417582 -116.612373 182 2829ft 5kts
14-May-17 11:28 34.418786 -116.611100 14 2824ft 14kts
14-May-17 11:29 34.420981 -116.608118 352 2814ft 0kts
14-May-17 11:30 34.420981 -116.608118 352 2814ft 0kts

Navigation Log

Ident Type
Flight plan parsing failed, navigation log unavailable